Time;durP1;ratioP1;P1;durP2;ratioP2;P2;SDS_P1;SDS_P2;PMS_P1;PMS_P2;Temp;Humidity;BMP_temperature;BMP_pressure;BME280_temperature;BME280_humidity;BME280_pressure;Samples;Min_cycle;Max_cycle;Signal;HPM_P1;HPM_P2
2021/11/11 00:01:05;;;;;;;;;81.00;66.67;;;;;;;;5054425;28;46125;-75
2021/11/11 00:03:30;;;;;;;;;80.33;64.33;;;;;;;;5055065;28;45491;-78
2021/11/11 00:05:56;;;;;;;;;81.00;64.67;;;;;;;;5055570;28;45588;-78
2021/11/11 00:08:21;;;;;;;;;84.67;65.67;;;;;;;;5055692;28;45343;-78
2021/11/11 00:10:47;;;;;;;;;86.67;67.00;;;;;;;;5055730;28;47066;-76
2021/11/11 00:13:12;;;;;;;;;83.67;64.00;;;;;;;;5051238;28;45643;-72
2021/11/11 00:15:37;;;;;;;;;81.67;60.00;;;;;;;;5056256;28;45280;-75
2021/11/11 00:18:03;;;;;;;;;78.00;63.00;;;;;;;;5056154;28;45461;-74
2021/11/11 00:20:28;;;;;;;;;82.67;65.00;;;;;;;;5055085;28;45639;-75
2021/11/11 00:22:54;;;;;;;;;88.00;72.33;;;;;;;;5055336;28;45281;-74
2021/11/11 00:25:21;;;;;;;;;85.00;70.33;;;;;;;;5055040;28;45459;-75
2021/11/11 00:27:46;;;;;;;;;80.33;65.00;;;;;;;;5054693;28;45276;-74
2021/11/11 00:30:13;;;;;;;;;80.33;65.33;;;;;;;;5054325;28;46088;-76
2021/11/11 00:32:39;;;;;;;;;84.00;67.33;;;;;;;;5055113;28;45482;-75
2021/11/11 00:35:06;;;;;;;;;87.00;68.33;;;;;;;;5055177;28;45471;-75
2021/11/11 00:37:31;;;;;;;;;82.00;63.33;;;;;;;;5054308;28;45411;-75
2021/11/11 00:39:57;;;;;;;;;82.33;65.00;;;;;;;;5054611;28;47408;-74
2021/11/11 00:42:22;;;;;;;;;80.67;60.33;;;;;;;;5035986;28;45515;-74
2021/11/11 00:44:48;;;;;;;;;76.67;58.67;;;;;;;;5055455;28;45450;-75
2021/11/11 00:47:13;;;;;;;;;80.67;60.67;;;;;;;;5055308;28;45363;-75
2021/11/11 00:49:40;;;;;;;;;82.67;62.67;;;;;;;;5055508;28;45450;-75
2021/11/11 00:52:07;;;;;;;;;82.00;65.00;;;;;;;;5054647;28;45511;-75
2021/11/11 00:54:32;;;;;;;;;78.67;61.67;;;;;;;;5055017;28;45316;-75
2021/11/11 00:56:57;;;;;;;;;80.67;62.33;;;;;;;;5054184;28;45502;-74
2021/11/11 00:59:23;;;;;;;;;79.00;60.67;;;;;;;;5054729;28;46234;-75
2021/11/11 01:01:48;;;;;;;;;84.33;68.00;;;;;;;;5055520;28;45324;-76
2021/11/11 01:04:13;;;;;;;;;81.00;60.33;;;;;;;;5055022;28;45434;-75
2021/11/11 01:06:38;;;;;;;;;81.33;65.00;;;;;;;;5054984;28;45499;-75
2021/11/11 01:09:04;;;;;;;;;84.00;61.33;;;;;;;;5054830;28;46147;-76
2021/11/11 01:11:29;;;;;;;;;81.00;61.33;;;;;;;;5054878;28;45299;-75
2021/11/11 01:13:54;;;;;;;;;82.00;61.67;;;;;;;;5054722;28;45376;-76
2021/11/11 01:16:20;;;;;;;;;80.00;58.33;;;;;;;;5054680;28;45463;-75
2021/11/11 01:18:45;;;;;;;;;81.67;65.00;;;;;;;;5054219;28;46244;-75
2021/11/11 01:21:11;;;;;;;;;79.67;62.00;;;;;;;;5054124;28;45488;-76
2021/11/11 01:23:36;;;;;;;;;77.00;63.00;;;;;;;;5057166;28;45593;-75
2021/11/11 01:26:03;;;;;;;;;81.67;67.67;;;;;;;;5056094;28;45398;-75
2021/11/11 01:28:29;;;;;;;;;88.67;70.33;;;;;;;;5053716;28;46160;-75
2021/11/11 01:30:55;;;;;;;;;83.67;66.00;;;;;;;;5054308;28;45267;-74
2021/11/11 01:33:20;;;;;;;;;85.00;68.67;;;;;;;;5054739;28;45333;-76
2021/11/11 01:35:45;;;;;;;;;81.00;62.33;;;;;;;;5054927;28;45229;-75
2021/11/11 01:38:10;;;;;;;;;87.33;73.33;;;;;;;;5054811;28;46088;-75
2021/11/11 01:40:36;;;;;;;;;86.33;70.33;;;;;;;;5054157;28;45271;-75
2021/11/11 01:43:04;;;;;;;;;88.00;68.00;;;;;;;;5054482;28;45439;-76
2021/11/11 01:45:32;;;;;;;;;85.67;70.00;;;;;;;;5054016;28;45465;-75
2021/11/11 01:47:57;;;;;;;;;75.33;60.33;;;;;;;;5054055;28;45424;-76
2021/11/11 01:50:24;;;;;;;;;82.67;65.00;;;;;;;;5053763;28;45486;-75
2021/11/11 01:52:49;;;;;;;;;82.33;68.67;;;;;;;;5054551;28;45329;-76
2021/11/11 01:55:15;;;;;;;;;82.00;65.67;;;;;;;;5053426;28;45445;-74
2021/11/11 01:57:40;;;;;;;;;82.67;66.00;;;;;;;;5053478;28;47116;-76
2021/11/11 02:00:08;;;;;;;;;85.00;70.67;;;;;;;;5053477;28;45336;-75
2021/11/11 02:02:33;;;;;;;;;81.33;66.00;;;;;;;;5054198;28;45348;-74
2021/11/11 02:04:58;;;;;;;;;85.00;66.33;;;;;;;;5054399;28;45297;-76
2021/11/11 02:07:24;;;;;;;;;79.67;64.00;;;;;;;;5054068;28;45492;-76
2021/11/11 02:09:49;;;;;;;;;84.00;65.67;;;;;;;;5053447;28;45799;-75
2021/11/11 02:12:14;;;;;;;;;81.67;65.33;;;;;;;;5053360;28;45502;-75
2021/11/11 02:14:40;;;;;;;;;82.00;66.33;;;;;;;;5053433;28;45594;-75
2021/11/11 02:17:05;;;;;;;;;81.33;60.67;;;;;;;;5035109;28;48101;-73
2021/11/11 02:19:31;;;;;;;;;85.00;63.67;;;;;;;;5053835;28;46343;-75
2021/11/11 02:21:56;;;;;;;;;84.67;65.33;;;;;;;;5053301;28;45396;-75
2021/11/11 02:24:21;;;;;;;;;81.33;65.00;;;;;;;;5054791;28;45550;-76
2021/11/11 02:26:49;;;;;;;;;81.33;64.00;;;;;;;;5057056;28;46082;-75
2021/11/11 02:29:14;;;;;;;;;79.00;61.00;;;;;;;;5056891;28;45524;-75
2021/11/11 02:31:39;;;;;;;;;83.67;66.00;;;;;;;;5039726;28;45417;-76
2021/11/11 02:34:04;;;;;;;;;83.67;65.67;;;;;;;;5057129;28;45470;-74
2021/11/11 02:36:30;;;;;;;;;89.33;67.33;;;;;;;;5056789;28;45422;-75
2021/11/11 02:38:57;;;;;;;;;81.33;63.00;;;;;;;;5056687;28;45400;-75
2021/11/11 02:41:23;;;;;;;;;83.33;64.67;;;;;;;;5057151;28;45462;-74
2021/11/11 02:43:48;;;;;;;;;81.00;63.67;;;;;;;;5057667;28;45412;-74
2021/11/11 02:46:13;;;;;;;;;82.33;66.00;;;;;;;;5038641;28;48117;-74
2021/11/11 02:48:40;;;;;;;;;79.67;61.67;;;;;;;;5056804;28;45471;-74
2021/11/11 02:51:05;;;;;;;;;84.33;65.33;;;;;;;;5056747;28;45447;-74
2021/11/11 02:53:30;;;;;;;;;81.67;62.33;;;;;;;;5056263;28;45311;-74
2021/11/11 02:55:56;;;;;;;;;83.33;65.67;;;;;;;;5057452;28;45458;-75
2021/11/11 02:58:23;;;;;;;;;81.33;61.67;;;;;;;;5056378;28;45508;-74
2021/11/11 03:00:53;;;;;;;;;80.67;63.67;;;;;;;;5056754;28;45370;-75
2021/11/11 03:03:19;;;;;;;;;81.33;64.33;;;;;;;;5056786;28;45343;-75
2021/11/11 03:05:45;;;;;;;;;82.33;63.00;;;;;;;;5038330;28;47270;-75
2021/11/11 03:08:10;;;;;;;;;85.67;61.67;;;;;;;;5056417;28;45381;-75
2021/11/11 03:10:38;;;;;;;;;78.33;60.33;;;;;;;;5057269;28;45304;-75
2021/11/11 03:13:03;;;;;;;;;82.00;61.67;;;;;;;;5056479;28;45340;-74
2021/11/11 03:15:30;;;;;;;;;82.00;62.67;;;;;;;;5055820;28;46020;-75
2021/11/11 03:17:55;;;;;;;;;78.67;59.00;;;;;;;;5056216;28;45271;-75
2021/11/11 03:20:20;;;;;;;;;83.00;65.00;;;;;;;;5056108;28;45294;-75
2021/11/11 03:22:46;;;;;;;;;82.33;64.33;;;;;;;;5057006;28;45324;-75
2021/11/11 03:25:13;;;;;;;;;80.00;62.00;;;;;;;;5056356;28;46070;-75
2021/11/11 03:27:38;;;;;;;;;84.67;64.33;;;;;;;;5056200;28;45431;-74
2021/11/11 03:30:05;;;;;;;;;83.00;62.67;;;;;;;;5056263;28;45482;-75
2021/11/11 03:32:30;;;;;;;;;79.33;61.67;;;;;;;;5056257;28;45551;-75
2021/11/11 03:34:55;;;;;;;;;83.33;63.00;;;;;;;;5056031;28;46320;-75
2021/11/11 03:37:23;;;;;;;;;77.67;60.00;;;;;;;;5055720;28;45439;-75
2021/11/11 03:39:50;;;;;;;;;80.67;64.00;;;;;;;;5056046;28;45411;-75
2021/11/11 03:42:16;;;;;;;;;78.67;62.00;;;;;;;;5056054;28;45501;-75
2021/11/11 03:44:41;;;;;;;;;85.67;62.33;;;;;;;;5055811;28;46822;-75
2021/11/11 03:47:07;;;;;;;;;77.33;61.00;;;;;;;;5056048;28;45371;-75
2021/11/11 03:49:33;;;;;;;;;74.67;58.00;;;;;;;;5056321;28;45379;-75
2021/11/11 03:51:58;;;;;;;;;80.33;61.67;;;;;;;;5055773;28;45559;-75
2021/11/11 03:54:26;;;;;;;;;82.00;61.00;;;;;;;;5055701;28;46578;-75
2021/11/11 03:56:53;;;;;;;;;80.67;63.00;;;;;;;;5055796;28;45325;-76
2021/11/11 03:59:18;;;;;;;;;79.67;62.00;;;;;;;;5055711;28;45309;-75
2021/11/11 04:01:44;;;;;;;;;74.00;59.33;;;;;;;;5056311;28;45291;-75
2021/11/11 04:04:09;;;;;;;;;80.67;62.00;;;;;;;;5055048;28;45707;-74
2021/11/11 04:06:34;;;;;;;;;83.00;59.00;;;;;;;;5055244;28;45268;-74
2021/11/11 04:09:00;;;;;;;;;73.00;55.67;;;;;;;;5055791;28;45457;-75
2021/11/11 04:11:28;;;;;;;;;74.67;57.00;;;;;;;;5055722;28;45245;-75
2021/11/11 04:13:54;;;;;;;;;82.00;60.33;;;;;;;;5056011;28;46163;-74
2021/11/11 04:16:19;;;;;;;;;79.33;61.33;;;;;;;;5055130;28;45519;-73
2021/11/11 04:18:44;;;;;;;;;83.33;62.00;;;;;;;;5055064;28;45868;-75
2021/11/11 04:21:10;;;;;;;;;80.00;63.00;;;;;;;;5055365;28;45537;-75
2021/11/11 04:23:35;;;;;;;;;77.00;59.67;;;;;;;;5037109;28;46908;-75
2021/11/11 04:26:08;;;;;;;;;79.00;61.00;;;;;;;;5055736;28;45399;-76
2021/11/11 04:28:38;;;;;;;;;77.00;61.33;;;;;;;;5055801;28;45359;-75
2021/11/11 04:31:07;;;;;;;;;77.33;60.00;;;;;;;;5055122;28;45550;-75
2021/11/11 04:33:36;;;;;;;;;80.33;60.67;;;;;;;;5054467;28;46036;-75
2021/11/11 04:36:09;;;;;;;;;78.67;61.00;;;;;;;;5055187;28;45537;-74
2021/11/11 05:00:04;;;;;;;;;74.67;57.00;;;;;;;;5055044;28;45368;-75
2021/11/11 05:02:51;;;;;;;;;74.33;57.33;;;;;;;;5038905;28;45478;-75
2021/11/11 05:05:16;;;;;;;;;75.33;58.00;;;;;;;;5054679;28;46148;-75
2021/11/11 05:07:41;;;;;;;;;70.00;56.00;;;;;;;;5055277;28;45312;-75
2021/11/11 05:10:07;;;;;;;;;75.33;60.33;;;;;;;;5054638;28;45432;-75
2021/11/11 05:12:32;;;;;;;;;75.33;59.67;;;;;;;;5054686;28;45408;-76
2021/11/11 05:14:57;;;;;;;;;69.33;55.33;;;;;;;;5054273;28;45289;-74
2021/11/11 05:17:24;;;;;;;;;69.00;55.67;;;;;;;;5054294;28;45369;-75
2021/11/11 05:19:50;;;;;;;;;71.67;57.00;;;;;;;;5055349;28;45495;-74
2021/11/11 05:22:15;;;;;;;;;74.33;57.33;;;;;;;;5054476;28;45453;-74
2021/11/11 05:24:40;;;;;;;;;69.00;52.67;;;;;;;;5054295;28;46986;-74
2021/11/11 05:27:06;;;;;;;;;68.67;55.33;;;;;;;;5054381;28;45213;-74
2021/11/11 05:29:32;;;;;;;;;70.00;55.33;;;;;;;;5036479;28;45808;-74
2021/11/11 05:31:57;;;;;;;;;74.67;57.33;;;;;;;;5055070;28;45305;-74
2021/11/11 05:34:23;;;;;;;;;77.00;60.67;;;;;;;;5054075;28;46294;-74
2021/11/11 05:36:48;;;;;;;;;76.33;57.67;;;;;;;;5054320;28;45260;-76
2021/11/11 05:39:13;;;;;;;;;72.67;55.00;;;;;;;;5054490;28;45498;-75
2021/11/11 05:41:40;;;;;;;;;71.00;55.33;;;;;;;;5054429;28;49505;-76
2021/11/11 05:44:05;;;;;;;;;76.33;59.33;;;;;;;;5056534;28;47430;-77
2021/11/11 05:46:30;;;;;;;;;64.33;52.00;;;;;;;;5056271;28;45353;-76
2021/11/11 05:48:55;;;;;;;;;74.33;57.33;;;;;;;;5057354;28;45547;-76
2021/11/11 05:51:20;;;;;;;;;76.67;57.67;;;;;;;;5054325;28;45237;-75
2021/11/11 05:53:46;;;;;;;;;74.67;58.67;;;;;;;;5055463;28;45537;-76
2021/11/11 05:56:11;;;;;;;;;76.33;59.00;;;;;;;;5053819;28;45614;-76
2021/11/11 05:58:36;;;;;;;;;70.00;55.33;;;;;;;;5055217;28;45339;-77
2021/11/11 06:01:02;;;;;;;;;67.00;54.00;;;;;;;;5057120;28;45273;-75
2021/11/11 06:03:27;;;;;;;;;66.00;53.67;;;;;;;;5057149;28;47223;-74
2021/11/11 06:05:53;;;;;;;;;72.00;55.33;;;;;;;;5057484;28;45402;-74
2021/11/11 06:08:18;;;;;;;;;69.67;54.33;;;;;;;;5057375;28;45487;-75
2021/11/11 06:10:43;;;;;;;;;69.33;54.33;;;;;;;;5057799;28;45256;-75
2021/11/11 06:13:08;;;;;;;;;64.67;53.00;;;;;;;;5056834;28;45675;-75
2021/11/11 06:15:34;;;;;;;;;64.33;49.33;;;;;;;;5056635;28;45553;-75
2021/11/11 06:17:59;;;;;;;;;69.00;55.33;;;;;;;;5057379;28;45327;-74
2021/11/11 06:20:32;;;;;;;;;70.67;55.00;;;;;;;;5056867;28;45264;-76
2021/11/11 06:22:57;;;;;;;;;65.00;52.00;;;;;;;;5053514;28;47081;-74
2021/11/11 06:25:22;;;;;;;;;74.33;57.67;;;;;;;;5057101;28;45326;-75
2021/11/11 06:27:48;;;;;;;;;74.00;56.00;;;;;;;;5056927;28;45406;-75
2021/11/11 06:30:13;;;;;;;;;74.67;58.33;;;;;;;;5056349;28;45433;-75
2021/11/11 06:32:38;;;;;;;;;71.33;53.67;;;;;;;;5056811;28;45951;-74
2021/11/11 06:35:05;;;;;;;;;64.67;53.33;;;;;;;;5056598;28;45308;-74
2021/11/11 06:37:30;;;;;;;;;75.00;60.00;;;;;;;;5057315;28;45506;-74
2021/11/11 06:39:55;;;;;;;;;74.33;53.67;;;;;;;;5038217;28;45493;-74
2021/11/11 06:42:21;;;;;;;;;70.33;56.00;;;;;;;;5056085;28;47462;-74
2021/11/11 06:44:47;;;;;;;;;69.00;56.33;;;;;;;;5056164;28;45276;-75
2021/11/11 06:47:13;;;;;;;;;72.33;56.33;;;;;;;;5056999;28;45311;-74
2021/11/11 06:49:38;;;;;;;;;70.33;56.00;;;;;;;;5057142;28;45344;-75
2021/11/11 06:52:04;;;;;;;;;70.33;54.33;;;;;;;;5056030;28;45492;-74
2021/11/11 06:54:29;;;;;;;;;74.67;58.00;;;;;;;;5056480;28;45373;-74
2021/11/11 06:56:55;;;;;;;;;69.67;54.67;;;;;;;;5056287;28;45285;-74
2021/11/11 06:59:20;;;;;;;;;71.33;55.33;;;;;;;;5055811;28;45462;-75
2021/11/11 07:01:45;;;;;;;;;65.67;54.00;;;;;;;;5039897;28;47478;-75
2021/11/11 07:04:10;;;;;;;;;67.67;52.33;;;;;;;;5058023;28;45620;-76
2021/11/11 07:06:35;;;;;;;;;67.67;55.33;;;;;;;;5056136;28;45412;-74
2021/11/11 07:09:02;;;;;;;;;69.33;56.67;;;;;;;;5056255;28;45540;-75
2021/11/11 07:11:27;;;;;;;;;74.00;55.67;;;;;;;;5038622;28;47275;-75
2021/11/11 07:13:53;;;;;;;;;72.33;56.00;;;;;;;;5056326;28;45242;-75
2021/11/11 07:16:18;;;;;;;;;70.33;57.33;;;;;;;;5038233;28;45280;-75
2021/11/11 07:18:43;;;;;;;;;77.00;57.00;;;;;;;;5055791;28;45598;-74
2021/11/11 07:21:08;;;;;;;;;66.33;53.33;;;;;;;;5055867;28;47105;-74
2021/11/11 07:23:34;;;;;;;;;65.33;51.33;;;;;;;;5055962;28;45330;-74
2021/11/11 07:25:59;;;;;;;;;66.67;54.33;;;;;;;;5056381;28;45223;-75
2021/11/11 07:28:24;;;;;;;;;65.00;53.00;;;;;;;;5055130;28;45591;-75
2021/11/11 07:30:49;;;;;;;;;71.00;56.67;;;;;;;;5055372;28;46038;-75
2021/11/11 07:33:15;;;;;;;;;67.00;53.67;;;;;;;;5055411;28;45295;-74
2021/11/11 07:35:42;;;;;;;;;65.00;52.00;;;;;;;;5055929;28;45277;-75
2021/11/11 07:38:08;;;;;;;;;73.00;56.00;;;;;;;;5055793;28;45428;-74
2021/11/11 07:40:35;;;;;;;;;63.33;50.33;;;;;;;;5055871;28;45411;-77
2021/11/11 07:43:01;;;;;;;;;70.00;56.33;;;;;;;;5054955;28;45463;-76
2021/11/11 07:45:28;;;;;;;;;69.00;55.00;;;;;;;;5055587;28;45494;-77
2021/11/11 07:47:55;;;;;;;;;68.00;54.00;;;;;;;;5037356;28;45474;-77
2021/11/11 07:50:21;;;;;;;;;72.00;53.33;;;;;;;;5055292;28;45414;-73
2021/11/11 07:52:46;;;;;;;;;63.33;51.67;;;;;;;;5057579;28;45367;-75
2021/11/11 07:55:11;;;;;;;;;67.33;53.33;;;;;;;;5054899;28;45494;-73
2021/11/11 07:57:37;;;;;;;;;65.00;51.67;;;;;;;;5055087;28;45413;-75
2021/11/11 08:00:07;;;;;;;;;68.67;53.00;;;;;;;;5055359;28;45327;-74
2021/11/11 08:02:32;;;;;;;;;70.00;54.00;;;;;;;;5039651;28;45258;-75
2021/11/11 08:04:57;;;;;;;;;73.00;57.00;;;;;;;;5056103;28;45261;-76
2021/11/11 08:07:23;;;;;;;;;69.33;53.67;;;;;;;;5055491;28;45490;-74
2021/11/11 08:09:49;;;;;;;;;69.33;54.67;;;;;;;;5054549;28;46925;-78
2021/11/11 08:12:14;;;;;;;;;68.67;54.00;;;;;;;;5054416;28;45288;-76
2021/11/11 08:14:40;;;;;;;;;64.33;52.67;;;;;;;;5054707;28;45372;-77
2021/11/11 08:17:05;;;;;;;;;71.00;56.00;;;;;;;;5054327;28;45617;-75
2021/11/11 08:19:31;;;;;;;;;67.67;52.00;;;;;;;;5053903;28;46128;-76
2021/11/11 08:21:56;;;;;;;;;66.33;53.67;;;;;;;;5053619;28;45448;-76
2021/11/11 08:24:21;;;;;;;;;64.67;49.67;;;;;;;;5054281;28;45475;-76
2021/11/11 08:26:46;;;;;;;;;71.00;55.33;;;;;;;;5055702;28;45442;-77
2021/11/11 08:29:12;;;;;;;;;68.67;53.33;;;;;;;;5057270;28;45969;-79
2021/11/11 08:31:37;;;;;;;;;68.33;55.33;;;;;;;;5054412;28;45401;-78
2021/11/11 08:34:02;;;;;;;;;65.00;51.00;;;;;;;;5054389;28;45404;-77
2021/11/11 08:36:28;;;;;;;;;68.33;54.00;;;;;;;;5053533;28;45539;-76
2021/11/11 08:38:55;;;;;;;;;65.00;50.67;;;;;;;;5053383;28;47238;-77
2021/11/11 08:41:20;;;;;;;;;66.67;52.67;;;;;;;;5053149;28;45371;-76
2021/11/11 08:43:45;;;;;;;;;71.00;55.00;;;;;;;;5054572;28;45424;-75
2021/11/11 08:46:11;;;;;;;;;68.00;53.33;;;;;;;;5035848;28;45590;-76
2021/11/11 08:48:36;;;;;;;;;66.67;52.00;;;;;;;;5053247;28;46124;-76
2021/11/11 08:51:01;;;;;;;;;69.00;54.33;;;;;;;;5053612;28;45522;-76
2021/11/11 08:53:29;;;;;;;;;63.33;52.00;;;;;;;;5053631;28;45376;-76
2021/11/11 08:55:55;;;;;;;;;69.00;53.00;;;;;;;;5053687;28;45379;-76
2021/11/11 08:58:20;;;;;;;;;64.67;52.00;;;;;;;;5053124;28;45525;-79
2021/11/11 09:00:49;;;;;;;;;60.00;48.00;;;;;;;;5053652;28;45426;-78
2021/11/11 09:03:15;;;;;;;;;70.33;53.33;;;;;;;;5053409;28;45299;-75
2021/11/11 09:05:40;;;;;;;;;73.33;56.00;;;;;;;;5045438;28;45545;-77
2021/11/11 09:08:07;;;;;;;;;65.50;51.00;;;;;;;;5053520;28;45811;-76
2021/11/11 09:10:32;;;;;;;;;72.00;55.33;;;;;;;;5052588;28;45632;-73
2021/11/11 09:12:58;;;;;;;;;56.67;47.00;;;;;;;;5053987;28;47943;-77
2021/11/11 09:15:25;;;;;;;;;54.00;45.00;;;;;;;;5052695;28;45618;-75
2021/11/11 09:17:51;;;;;;;;;65.50;49.75;;;;;;;;5053087;28;45603;-73
2021/11/11 09:20:18;;;;;;;;;61.50;50.75;;;;;;;;5052793;28;45387;-77
2021/11/11 09:22:43;;;;;;;;;70.00;54.00;;;;;;;;5054028;28;45614;-75
2021/11/11 09:25:09;;;;;;;;;67.75;53.00;;;;;;;;5053169;28;45992;-75
2021/11/11 09:27:35;;;;;;;;;69.50;53.75;;;;;;;;5053398;28;46246;-76
2021/11/11 09:30:02;;;;;;;;;64.50;52.50;;;;;;;;5053274;28;45403;-74
2021/11/11 09:32:27;;;;;;;;;69.67;56.67;;;;;;;;5053591;28;45543;-75
2021/11/11 09:34:53;;;;;;;;;69.00;53.25;;;;;;;;5038692;28;45401;-76
2021/11/11 09:37:19;;;;;;;;;70.50;54.75;;;;;;;;5056611;28;47296;-75
2021/11/11 09:39:44;;;;;;;;;64.50;52.75;;;;;;;;5056268;28;45381;-75
2021/11/11 09:42:09;;;;;;;;;70.00;54.00;;;;;;;;5038374;28;45363;-75
2021/11/11 09:44:35;;;;;;;;;68.67;55.00;;;;;;;;5056565;28;45431;-77
2021/11/11 09:47:00;;;;;;;;;69.50;56.00;;;;;;;;5057170;28;47598;-75
2021/11/11 09:49:27;;;;;;;;;69.25;55.75;;;;;;;;5056736;28;45555;-76
2021/11/11 09:51:53;;;;;;;;;69.50;54.50;;;;;;;;5056579;28;45491;-74
2021/11/11 09:59:38;;;;;;;;;77.00;58.75;;;;;;;;5040604;28;45431;-76
2021/11/11 10:02:03;;;;;;;;;72.75;57.00;;;;;;;;5055456;28;45303;-76
2021/11/11 10:04:29;;;;;;;;;69.00;53.00;;;;;;;;5055639;28;45564;-75
2021/11/11 10:06:55;;;;;;;;;71.75;55.00;;;;;;;;5055470;28;46615;-76
2021/11/11 10:09:21;;;;;;;;;70.00;53.75;;;;;;;;5055777;28;45416;-75
2021/11/11 10:11:50;;;;;;;;;72.25;55.75;;;;;;;;5055732;28;45502;-74
2021/11/11 10:14:24;;;;;;;;;70.75;58.25;;;;;;;;5054904;28;45457;-75
2021/11/11 10:16:52;;;;;;;;;67.50;53.50;;;;;;;;5055700;28;46250;-76
2021/11/11 10:19:18;;;;;;;;;76.50;57.50;;;;;;;;5057351;28;47713;-77
2021/11/11 10:24:36;;;;;;;;;76.50;61.25;;;;;;;;5051634;28;45505;-74
2021/11/11 10:27:03;;;;;;;;;76.50;58.75;;;;;;;;5030006;28;45383;-74
2021/11/11 10:29:32;;;;;;;;;70.75;54.25;;;;;;;;5036275;28;45616;-72
2021/11/11 10:32:07;;;;;;;;;69.50;56.00;;;;;;;;5051388;28;45442;-72
2021/11/11 10:34:32;;;;;;;;;73.75;57.00;;;;;;;;5055256;28;45646;-74
2021/11/11 10:36:58;;;;;;;;;74.50;57.00;;;;;;;;5053887;28;45411;-74
2021/11/11 10:39:26;;;;;;;;;72.50;56.75;;;;;;;;5036058;28;45477;-73
2021/11/11 10:41:53;;;;;;;;;60.00;49.00;;;;;;;;5054908;28;45248;-73
2021/11/11 10:44:20;;;;;;;;;75.25;57.50;;;;;;;;5053872;28;45385;-74
2021/11/11 10:46:51;;;;;;;;;76.75;60.00;;;;;;;;5054590;28;45634;-76
2021/11/11 10:49:17;;;;;;;;;73.75;57.50;;;;;;;;5054938;28;45491;-74
2021/11/11 10:51:42;;;;;;;;;72.50;57.75;;;;;;;;5054699;28;45424;-72
2021/11/11 10:54:08;;;;;;;;;67.75;55.50;;;;;;;;5054444;28;45328;-75
2021/11/11 10:56:41;;;;;;;;;75.75;58.00;;;;;;;;5054377;28;47134;-73
2021/11/11 10:59:14;;;;;;;;;74.50;57.75;;;;;;;;5054828;28;45717;-73
2021/11/11 11:01:40;;;;;;;;;75.00;59.25;;;;;;;;5055718;28;45476;-72
2021/11/11 11:04:06;;;;;;;;;72.50;55.25;;;;;;;;5054977;28;45423;-74
2021/11/11 11:06:33;;;;;;;;;71.50;55.25;;;;;;;;5054519;28;46349;-74
2021/11/11 11:08:59;;;;;;;;;72.50;56.25;;;;;;;;5054774;28;45557;-73
2021/11/11 11:11:32;;;;;;;;;70.75;55.75;;;;;;;;5054647;28;45394;-73
2021/11/11 11:14:00;;;;;;;;;68.00;53.75;;;;;;;;5050130;28;45440;-72
2021/11/11 11:16:35;;;;;;;;;74.75;59.50;;;;;;;;5054083;28;46538;-72
2021/11/11 11:19:06;;;;;;;;;79.25;68.50;;;;;;;;5035455;28;45514;-74
2021/11/11 11:21:35;;;;;;;;;72.50;58.50;;;;;;;;5054335;28;45409;-74
2021/11/11 11:24:01;;;;;;;;;71.25;56.00;;;;;;;;5054190;28;45491;-76
2021/11/11 11:26:28;;;;;;;;;75.75;60.25;;;;;;;;5053640;28;45508;-73
2021/11/11 11:31:55;;;;;;;;;76.00;61.75;;;;;;;;5052101;28;45291;-76
2021/11/11 11:34:25;;;;;;;;;70.50;55.00;;;;;;;;5053076;28;45525;-75
2021/11/11 11:36:52;;;;;;;;;72.25;54.75;;;;;;;;5053355;28;47055;-76
2021/11/11 11:39:22;;;;;;;;;76.50;65.25;;;;;;;;5054061;28;45423;-76
2021/11/11 11:41:48;;;;;;;;;63.25;51.50;;;;;;;;5054415;28;45584;-72
2021/11/11 11:44:34;;;;;;;;;66.75;53.00;;;;;;;;5053309;28;45503;-73
2021/11/11 11:47:03;;;;;;;;;65.25;52.50;;;;;;;;5051767;28;45446;-77
2021/11/11 11:49:29;;;;;;;;;67.25;53.00;;;;;;;;5054323;28;46874;-77
2021/11/11 11:51:55;;;;;;;;;66.25;52.50;;;;;;;;5052886;28;45498;-75
2021/11/11 11:54:31;;;;;;;;;67.75;51.25;;;;;;;;5053696;28;45343;-74
2021/11/11 11:57:00;;;;;;;;;66.00;53.00;;;;;;;;5053083;28;45546;-74
2021/11/11 11:59:31;;;;;;;;;65.00;51.00;;;;;;;;5053498;28;45721;-73
2021/11/11 12:02:13;;;;;;;;;63.00;50.25;;;;;;;;5054018;28;45465;-74
2021/11/11 12:05:27;;;;;;;;;60.50;48.25;;;;;;;;5053262;28;45254;-73
2021/11/11 12:07:30;;;;;;;;;66.25;52.25;;;;;;;;5041287;28;45384;-73
2021/11/11 12:10:19;;;;;;;;;61.00;48.50;;;;;;;;5053304;28;45569;-74
2021/11/11 12:13:18;;;;;;;;;58.50;46.75;;;;;;;;5051741;28;45382;-73
2021/11/11 12:29:30;;;;;;;;;61.50;49.75;;;;;;;;5050037;28;45802;-72
2021/11/11 12:40:00;;;;;;;;;56.25;46.00;;;;;;;;5053186;28;45428;-73
2021/11/11 12:42:29;;;;;;;;;59.75;48.00;;;;;;;;5052968;28;45539;-74
2021/11/11 12:45:04;;;;;;;;;58.25;48.25;;;;;;;;5053095;28;45423;-73
2021/11/11 12:47:40;;;;;;;;;59.75;49.50;;;;;;;;5050656;28;45557;-75
2021/11/11 12:50:24;;;;;;;;;68.00;51.75;;;;;;;;5050251;28;46210;-73
2021/11/11 12:53:09;;;;;;;;;69.50;54.75;;;;;;;;5053429;28;45320;-73
2021/11/11 12:55:35;;;;;;;;;71.75;57.00;;;;;;;;5051155;28;45521;-72
2021/11/11 12:58:02;;;;;;;;;76.75;62.75;;;;;;;;5052630;28;45481;-72
2021/11/11 13:00:30;;;;;;;;;70.25;57.00;;;;;;;;5052606;28;46164;-75
2021/11/11 13:02:55;;;;;;;;;71.00;55.00;;;;;;;;5053049;28;45584;-75
2021/11/11 13:05:40;;;;;;;;;71.50;55.25;;;;;;;;5052440;28;45289;-73
2021/11/11 13:08:06;;;;;;;;;71.50;57.00;;;;;;;;5049000;28;45548;-75
2021/11/11 13:10:31;;;;;;;;;68.00;53.50;;;;;;;;5053208;28;45440;-74
2021/11/11 13:13:12;;;;;;;;;70.50;56.25;;;;;;;;5052119;28;45474;-74
2021/11/11 13:15:42;;;;;;;;;70.50;62.00;;;;;;;;5051970;28;45610;-73
2021/11/11 13:18:09;;;;;;;;;65.00;52.00;;;;;;;;5052378;28;45474;-74
2021/11/11 13:20:40;;;;;;;;;64.00;52.25;;;;;;;;5052473;28;46961;-77
2021/11/11 13:23:19;;;;;;;;;66.75;54.50;;;;;;;;5052502;28;45443;-75
2021/11/11 15:16:43;;;;;;;;;56.50;46.50;;;;;;;;4951703;28;45450;-76
2021/11/11 15:19:51;;;;;;;;;59.50;45.75;;;;;;;;4947702;28;45400;-76
2021/11/11 16:01:17;;;;;;;;;57.50;42.75;;;;;;;;5052985;28;45643;-76
2021/11/11 16:20:27;;;;;;;;;49.25;39.00;;;;;;;;4994036;28;45486;-75
2021/11/11 16:28:13;;;;;;;;;44.75;35.00;;;;;;;;4992333;28;45361;-75
2021/11/11 16:30:38;;;;;;;;;47.00;38.50;;;;;;;;4992220;28;45571;-75
2021/11/11 16:33:03;;;;;;;;;40.00;35.75;;;;;;;;4994155;28;45643;-75
2021/11/11 16:35:29;;;;;;;;;47.00;37.75;;;;;;;;4991192;28;45575;-76
2021/11/11 16:37:54;;;;;;;;;48.75;41.50;;;;;;;;4991395;28;45858;-75
2021/11/11 16:40:21;;;;;;;;;52.75;42.00;;;;;;;;4991216;28;45651;-76
2021/11/11 16:42:47;;;;;;;;;55.50;45.50;;;;;;;;5015515;28;45511;-75
2021/11/11 16:45:14;;;;;;;;;54.00;45.25;;;;;;;;5053189;28;45463;-74
2021/11/11 16:47:39;;;;;;;;;51.00;41.25;;;;;;;;5052212;28;47064;-74
2021/11/11 16:50:05;;;;;;;;;53.00;42.75;;;;;;;;5053028;28;45176;-75
2021/11/11 16:52:32;;;;;;;;;50.75;41.00;;;;;;;;5053026;28;45412;-74
2021/11/11 16:54:57;;;;;;;;;55.75;45.00;;;;;;;;5053147;28;45359;-74
2021/11/11 16:57:22;;;;;;;;;50.25;40.25;;;;;;;;5053183;28;45464;-76
2021/11/11 16:59:47;;;;;;;;;48.25;38.25;;;;;;;;5053424;28;45372;-75
2021/11/11 17:02:12;;;;;;;;;50.00;41.25;;;;;;;;5053541;28;45375;-77
2021/11/11 17:04:38;;;;;;;;;53.50;43.75;;;;;;;;5054543;28;45367;-75
2021/11/11 17:07:04;;;;;;;;;56.50;47.50;;;;;;;;5052911;28;45293;-77
2021/11/11 17:09:29;;;;;;;;;61.75;48.25;;;;;;;;5053383;28;45322;-76
2021/11/11 17:11:55;;;;;;;;;62.75;50.25;;;;;;;;5053625;28;45526;-75
2021/11/11 17:14:26;;;;;;;;;55.25;45.00;;;;;;;;5053700;28;45484;-76
2021/11/11 17:16:52;;;;;;;;;57.00;45.75;;;;;;;;5055532;28;45515;-76
2021/11/11 17:19:20;;;;;;;;;54.75;43.00;;;;;;;;5054084;28;45368;-76
2021/11/11 17:21:45;;;;;;;;;56.25;45.75;;;;;;;;5052298;28;45807;-77
2021/11/11 17:24:16;;;;;;;;;58.50;46.25;;;;;;;;5051274;28;45451;-77
2021/11/11 17:27:08;;;;;;;;;61.00;47.50;;;;;;;;5052604;28;46651;-74
2021/11/11 17:29:32;;;;;;;;;57.25;45.25;;;;;;;;5037964;28;45561;-77
2021/11/11 17:31:57;;;;;;;;;62.25;49.00;;;;;;;;5053228;28;45376;-74
2021/11/11 17:34:23;;;;;;;;;57.25;45.25;;;;;;;;5052482;28;45446;-75
2021/11/11 17:36:49;;;;;;;;;57.75;46.75;;;;;;;;5033057;28;46623;-76
2021/11/11 17:39:15;;;;;;;;;73.75;56.50;;;;;;;;5051883;28;45486;-78
2021/11/11 17:41:43;;;;;;;;;67.50;53.75;;;;;;;;5051933;28;45475;-76
2021/11/11 17:44:10;;;;;;;;;78.75;60.25;;;;;;;;5052132;28;45704;-75
2021/11/11 17:46:38;;;;;;;;;66.00;52.00;;;;;;;;5046786;28;46404;-77
2021/11/11 17:49:04;;;;;;;;;69.25;52.75;;;;;;;;5052143;28;45422;-78
2021/11/11 17:54:16;;;;;;;;;71.50;56.00;;;;;;;;5050775;28;45821;-71
2021/11/11 17:56:45;;;;;;;;;71.50;55.00;;;;;;;;5056931;28;45786;-75
2021/11/11 17:59:11;;;;;;;;;73.50;57.00;;;;;;;;5056665;28;45359;-75
2021/11/11 18:01:36;;;;;;;;;70.00;54.50;;;;;;;;5057344;28;45507;-73
2021/11/11 18:04:02;;;;;;;;;72.67;55.67;;;;;;;;5048621;28;45569;-74